sensor_id;sensor_type;location;lat;lon;timestamp;pressure;altitude;pressure_sealevel;temperature;humidity
64610;BME280;51019;46.090;6.350;2023-03-15T00:01:07;96516.88;;;1.97;100.00
64610;BME280;51019;46.090;6.350;2023-03-15T00:03:35;96600.78;;;2.50;100.00
64610;BME280;51019;46.090;6.350;2023-03-15T00:06:02;96591.25;;;2.50;100.00
64610;BME280;51019;46.090;6.350;2023-03-15T00:08:29;96574.47;;;2.58;100.00
64610;BME280;51019;46.090;6.350;2023-03-15T00:10:58;96493.97;;;2.05;100.00
64610;BME280;51019;46.090;6.350;2023-03-15T00:13:26;96558.75;;;2.46;100.00
64610;BME280;51019;46.090;6.350;2023-03-15T00:15:56;96498.97;;;1.94;100.00
64610;BME280;51019;46.090;6.350;2023-03-15T00:18:26;96590.25;;;2.25;100.00
64610;BME280;51019;46.090;6.350;2023-03-15T00:20:54;96574.78;;;2.09;100.00
64610;BME280;51019;46.090;6.350;2023-03-15T00:23:21;96583.72;;;2.03;100.00
64610;BME280;51019;46.090;6.350;2023-03-15T00:25:50;96599.84;;;2.23;100.00
64610;BME280;51019;46.090;6.350;2023-03-15T00:28:18;96487.63;;;1.53;100.00
64610;BME280;51019;46.090;6.350;2023-03-15T00:30:45;96615.72;;;2.31;100.00
64610;BME280;51019;46.090;6.350;2023-03-15T00:33:13;96449.59;;;1.40;100.00
64610;BME280;51019;46.090;6.350;2023-03-15T00:35:43;96453.00;;;1.41;100.00
64610;BME280;51019;46.090;6.350;2023-03-15T00:38:11;96619.44;;;2.41;100.00
64610;BME280;51019;46.090;6.350;2023-03-15T00:40:39;96558.44;;;2.08;100.00
64610;BME280;51019;46.090;6.350;2023-03-15T00:43:07;96564.19;;;2.13;100.00
64610;BME280;51019;46.090;6.350;2023-03-15T00:45:35;96514.84;;;1.88;100.00
64610;BME280;51019;46.090;6.350;2023-03-15T00:48:02;96605.13;;;2.35;100.00
64610;BME280;51019;46.090;6.350;2023-03-15T00:50:30;96605.75;;;2.25;100.00
64610;BME280;51019;46.090;6.350;2023-03-15T00:52:59;96583.53;;;2.06;100.00
64610;BME280;51019;46.090;6.350;2023-03-15T00:55:26;96587.16;;;2.18;100.00
64610;BME280;51019;46.090;6.350;2023-03-15T00:57:53;96611.75;;;2.25;100.00
64610;BME280;51019;46.090;6.350;2023-03-15T01:00:22;96553.13;;;1.81;100.00
64610;BME280;51019;46.090;6.350;2023-03-15T01:02:49;96596.22;;;2.11;100.00
64610;BME280;51019;46.090;6.350;2023-03-15T01:05:17;96622.41;;;2.35;100.00
64610;BME280;51019;46.090;6.350;2023-03-15T01:07:44;96617.09;;;2.22;100.00
64610;BME280;51019;46.090;6.350;2023-03-15T01:10:14;96624.94;;;2.21;100.00
64610;BME280;51019;46.090;6.350;2023-03-15T01:12:42;96584.44;;;1.91;100.00
64610;BME280;51019;46.090;6.350;2023-03-15T01:15:11;96624.66;;;2.11;100.00
64610;BME280;51019;46.090;6.350;2023-03-15T01:17:38;96609.31;;;2.08;100.00
64610;BME280;51019;46.090;6.350;2023-03-15T01:20:07;96585.72;;;1.84;100.00
64610;BME280;51019;46.090;6.350;2023-03-15T01:22:34;96578.66;;;1.72;100.00
64610;BME280;51019;46.090;6.350;2023-03-15T01:25:01;96610.63;;;1.85;100.00
64610;BME280;51019;46.090;6.350;2023-03-15T01:27:30;96622.41;;;2.05;100.00
64610;BME280;51019;46.090;6.350;2023-03-15T01:29:57;96549.63;;;1.53;100.00
64610;BME280;51019;46.090;6.350;2023-03-15T01:32:25;96615.06;;;1.83;100.00
64610;BME280;51019;46.090;6.350;2023-03-15T01:34:53;96620.72;;;1.90;100.00
64610;BME280;51019;46.090;6.350;2023-03-15T01:37:20;96475.00;;;1.02;100.00
64610;BME280;51019;46.090;6.350;2023-03-15T01:39:49;96613.66;;;1.77;100.00
64610;BME280;51019;46.090;6.350;2023-03-15T01:42:17;96611.16;;;1.76;100.00
64610;BME280;51019;46.090;6.350;2023-03-15T01:45:01;96615.34;;;1.63;100.00
64610;BME280;51019;46.090;6.350;2023-03-15T01:47:29;96543.47;;;1.09;100.00
64610;BME280;51019;46.090;6.350;2023-03-15T01:50:01;96549.22;;;0.99;100.00
64610;BME280;51019;46.090;6.350;2023-03-15T01:52:32;96614.13;;;1.38;100.00
64610;BME280;51019;46.090;6.350;2023-03-15T01:55:06;96620.13;;;1.39;100.00
64610;BME280;51019;46.090;6.350;2023-03-15T01:57:37;96621.13;;;1.52;100.00
64610;BME280;51019;46.090;6.350;2023-03-15T02:00:10;96614.88;;;1.56;100.00
64610;BME280;51019;46.090;6.350;2023-03-15T02:02:42;96544.38;;;0.93;100.00
64610;BME280;51019;46.090;6.350;2023-03-15T02:05:16;96572.84;;;1.07;100.00
64610;BME280;51019;46.090;6.350;2023-03-15T02:07:46;96506.59;;;0.60;100.00
64610;BME280;51019;46.090;6.350;2023-03-15T02:10:22;96617.81;;;1.19;100.00
64610;BME280;51019;46.090;6.350;2023-03-15T02:12:52;96501.25;;;0.48;100.00
64610;BME280;51019;46.090;6.350;2023-03-15T02:15:23;96560.28;;;0.85;100.00
64610;BME280;51019;46.090;6.350;2023-03-15T02:17:51;96612.41;;;1.23;100.00
64610;BME280;51019;46.090;6.350;2023-03-15T02:20:27;96611.06;;;1.00;100.00
64610;BME280;51019;46.090;6.350;2023-03-15T02:22:59;96591.97;;;1.03;100.00
64610;BME280;51019;46.090;6.350;2023-03-15T02:25:37;96572.00;;;0.91;100.00
64610;BME280;51019;46.090;6.350;2023-03-15T02:28:10;96527.06;;;0.63;100.00
64610;BME280;51019;46.090;6.350;2023-03-15T02:30:40;96606.13;;;0.80;100.00
64610;BME280;51019;46.090;6.350;2023-03-15T02:33:11;96556.50;;;0.44;100.00
64610;BME280;51019;46.090;6.350;2023-03-15T02:35:41;96604.94;;;0.70;100.00
64610;BME280;51019;46.090;6.350;2023-03-15T02:38:09;96605.28;;;0.80;100.00
64610;BME280;51019;46.090;6.350;2023-03-15T02:40:36;96588.63;;;0.69;100.00
64610;BME280;51019;46.090;6.350;2023-03-15T02:43:08;96542.00;;;0.41;100.00
64610;BME280;51019;46.090;6.350;2023-03-15T02:45:37;96589.31;;;0.73;100.00
64610;BME280;51019;46.090;6.350;2023-03-15T02:48:06;96599.53;;;0.75;100.00
64610;BME280;51019;46.090;6.350;2023-03-15T02:50:35;96602.44;;;0.68;100.00
64610;BME280;51019;46.090;6.350;2023-03-15T02:53:03;96603.59;;;0.63;100.00
64610;BME280;51019;46.090;6.350;2023-03-15T02:55:30;96559.38;;;0.05;100.00
64610;BME280;51019;46.090;6.350;2023-03-15T02:57:58;96568.44;;;0.12;100.00
64610;BME280;51019;46.090;6.350;2023-03-15T03:00:28;96524.38;;;-0.17;100.00
64610;BME280;51019;46.090;6.350;2023-03-15T03:02:56;96618.31;;;0.61;100.00
64610;BME280;51019;46.090;6.350;2023-03-15T03:05:24;96552.06;;;0.13;100.00
64610;BME280;51019;46.090;6.350;2023-03-15T03:07:51;96605.66;;;0.23;100.00
64610;BME280;51019;46.090;6.350;2023-03-15T03:10:20;96626.13;;;0.44;100.00
64610;BME280;51019;46.090;6.350;2023-03-15T03:12:48;96631.13;;;0.29;100.00
64610;BME280;51019;46.090;6.350;2023-03-15T03:15:18;96624.09;;;0.16;100.00
64610;BME280;51019;46.090;6.350;2023-03-15T03:17:48;96588.16;;;0.13;100.00
64610;BME280;51019;46.090;6.350;2023-03-15T03:20:16;96597.69;;;0.28;100.00
64610;BME280;51019;46.090;6.350;2023-03-15T03:22:44;96561.53;;;0.12;100.00
64610;BME280;51019;46.090;6.350;2023-03-15T03:25:12;96604.94;;;0.37;100.00
64610;BME280;51019;46.090;6.350;2023-03-15T03:27:40;96516.44;;;-0.12;100.00
64610;BME280;51019;46.090;6.350;2023-03-15T03:30:10;96625.75;;;0.67;100.00
64610;BME280;51019;46.090;6.350;2023-03-15T03:32:39;96486.44;;;-0.13;100.00
64610;BME280;51019;46.090;6.350;2023-03-15T03:35:08;96626.75;;;0.64;100.00
64610;BME280;51019;46.090;6.350;2023-03-15T03:37:36;96617.00;;;0.36;100.00
64610;BME280;51019;46.090;6.350;2023-03-15T03:40:05;96648.69;;;0.56;100.00
64610;BME280;51019;46.090;6.350;2023-03-15T03:42:33;96645.44;;;0.68;100.00
64610;BME280;51019;46.090;6.350;2023-03-15T03:45:00;96648.97;;;0.67;100.00
64610;BME280;51019;46.090;6.350;2023-03-15T03:47:28;96655.25;;;0.61;100.00
64610;BME280;51019;46.090;6.350;2023-03-15T03:49:55;96596.50;;;0.18;100.00
64610;BME280;51019;46.090;6.350;2023-03-15T03:52:24;96535.16;;;-0.26;100.00
64610;BME280;51019;46.090;6.350;2023-03-15T03:54:51;96636.03;;;0.51;100.00
64610;BME280;51019;46.090;6.350;2023-03-15T03:57:19;96555.91;;;-0.12;100.00
64610;BME280;51019;46.090;6.350;2023-03-15T03:59:47;96579.69;;;-0.07;100.00
64610;BME280;51019;46.090;6.350;2023-03-15T04:02:14;96530.78;;;-0.24;100.00
64610;BME280;51019;46.090;6.350;2023-03-15T04:04:43;96599.75;;;0.04;100.00
64610;BME280;51019;46.090;6.350;2023-03-15T04:07:14;96625.59;;;0.20;100.00
64610;BME280;51019;46.090;6.350;2023-03-15T04:09:44;96580.91;;;-0.14;100.00
64610;BME280;51019;46.090;6.350;2023-03-15T04:12:12;96627.88;;;0.09;100.00
64610;BME280;51019;46.090;6.350;2023-03-15T04:14:40;96637.28;;;0.10;100.00
64610;BME280;51019;46.090;6.350;2023-03-15T04:17:07;96646.06;;;0.06;100.00
64610;BME280;51019;46.090;6.350;2023-03-15T04:19:35;96501.84;;;-0.81;100.00
64610;BME280;51019;46.090;6.350;2023-03-15T04:22:03;96625.00;;;-0.03;100.00
64610;BME280;51019;46.090;6.350;2023-03-15T04:24:32;96661.53;;;0.06;100.00
64610;BME280;51019;46.090;6.350;2023-03-15T04:27:03;96657.88;;;-0.08;100.00
64610;BME280;51019;46.090;6.350;2023-03-15T04:29:30;96630.66;;;-0.30;100.00
64610;BME280;51019;46.090;6.350;2023-03-15T04:31:58;96660.72;;;-0.12;100.00
64610;BME280;51019;46.090;6.350;2023-03-15T04:34:27;96654.72;;;-0.13;100.00
64610;BME280;51019;46.090;6.350;2023-03-15T04:36:55;96616.38;;;-0.55;100.00
64610;BME280;51019;46.090;6.350;2023-03-15T04:39:23;96659.09;;;-0.15;100.00
64610;BME280;51019;46.090;6.350;2023-03-15T04:41:50;96558.06;;;-0.73;100.00
64610;BME280;51019;46.090;6.350;2023-03-15T04:44:21;96621.97;;;-0.28;100.00
64610;BME280;51019;46.090;6.350;2023-03-15T04:46:51;96550.56;;;-0.78;100.00
64610;BME280;51019;46.090;6.350;2023-03-15T04:49:18;96663.69;;;-0.21;100.00
64610;BME280;51019;46.090;6.350;2023-03-15T04:51:45;96662.97;;;-0.23;100.00
64610;BME280;51019;46.090;6.350;2023-03-15T04:54:13;96658.47;;;-0.37;100.00
64610;BME280;51019;46.090;6.350;2023-03-15T04:56:41;96657.13;;;-0.27;100.00
64610;BME280;51019;46.090;6.350;2023-03-15T04:59:08;96639.16;;;-0.46;100.00
64610;BME280;51019;46.090;6.350;2023-03-15T05:01:38;96673.16;;;-0.22;100.00
64610;BME280;51019;46.090;6.350;2023-03-15T05:04:05;96654.63;;;-0.28;100.00
64610;BME280;51019;46.090;6.350;2023-03-15T05:06:33;96624.66;;;-0.48;100.00
64610;BME280;51019;46.090;6.350;2023-03-15T05:09:00;96613.56;;;-0.67;100.00
64610;BME280;51019;46.090;6.350;2023-03-15T05:11:28;96641.47;;;-0.58;100.00
64610;BME280;51019;46.090;6.350;2023-03-15T05:13:55;96567.59;;;-1.11;100.00
64610;BME280;51019;46.090;6.350;2023-03-15T05:16:23;96575.31;;;-0.92;100.00
64610;BME280;51019;46.090;6.350;2023-03-15T05:18:53;96604.59;;;-1.14;100.00
64610;BME280;51019;46.090;6.350;2023-03-15T05:21:21;96619.94;;;-1.12;100.00
64610;BME280;51019;46.090;6.350;2023-03-15T05:23:48;96711.25;;;-0.64;100.00
64610;BME280;51019;46.090;6.350;2023-03-15T05:26:16;96622.94;;;-1.02;100.00
64610;BME280;51019;46.090;6.350;2023-03-15T05:28:44;96597.81;;;-1.35;100.00
64610;BME280;51019;46.090;6.350;2023-03-15T05:31:11;96716.19;;;-0.60;100.00
64610;BME280;51019;46.090;6.350;2023-03-15T05:33:39;96666.03;;;-0.70;100.00
64610;BME280;51019;46.090;6.350;2023-03-15T05:36:12;96522.19;;;-1.48;100.00
64610;BME280;51019;46.090;6.350;2023-03-15T05:38:40;96729.50;;;-0.33;100.00
64610;BME280;51019;46.090;6.350;2023-03-15T05:41:08;96669.28;;;-0.66;100.00
64610;BME280;51019;46.090;6.350;2023-03-15T05:43:35;96724.72;;;-0.41;100.00
64610;BME280;51019;46.090;6.350;2023-03-15T05:46:03;96707.97;;;-0.49;100.00
64610;BME280;51019;46.090;6.350;2023-03-15T05:48:30;96741.78;;;-0.38;100.00
64610;BME280;51019;46.090;6.350;2023-03-15T05:50:58;96732.19;;;-0.53;100.00
64610;BME280;51019;46.090;6.350;2023-03-15T05:53:28;96739.00;;;-0.52;100.00
64610;BME280;51019;46.090;6.350;2023-03-15T05:55:55;96734.56;;;-0.49;100.00
64610;BME280;51019;46.090;6.350;2023-03-15T05:58:23;96734.53;;;-0.30;100.00
64610;BME280;51019;46.090;6.350;2023-03-15T06:00:50;96733.03;;;-0.34;100.00
64610;BME280;51019;46.090;6.350;2023-03-15T06:03:18;96712.31;;;-0.68;100.00
64610;BME280;51019;46.090;6.350;2023-03-15T06:05:47;96657.97;;;-1.00;100.00
64610;BME280;51019;46.090;6.350;2023-03-15T06:08:15;96730.31;;;-0.50;100.00
64610;BME280;51019;46.090;6.350;2023-03-15T06:10:45;96548.00;;;-1.70;100.00
64610;BME280;51019;46.090;6.350;2023-03-15T06:13:13;96638.28;;;-1.20;100.00
64610;BME280;51019;46.090;6.350;2023-03-15T06:15:40;96681.13;;;-0.81;100.00
64610;BME280;51019;46.090;6.350;2023-03-15T06:18:08;96585.31;;;-1.61;100.00
64610;BME280;51019;46.090;6.350;2023-03-15T06:20:35;96699.06;;;-0.98;100.00
64610;BME280;51019;46.090;6.350;2023-03-15T06:23:04;96630.81;;;-1.44;100.00
64610;BME280;51019;46.090;6.350;2023-03-15T06:25:31;96666.03;;;-1.26;100.00
64610;BME280;51019;46.090;6.350;2023-03-15T06:28:01;96754.75;;;-0.58;100.00
64610;BME280;51019;46.090;6.350;2023-03-15T06:30:28;96754.38;;;-0.69;100.00
64610;BME280;51019;46.090;6.350;2023-03-15T06:32:55;96608.88;;;-1.52;100.00
64610;BME280;51019;46.090;6.350;2023-03-15T06:35:23;96733.28;;;-0.78;100.00
64610;BME280;51019;46.090;6.350;2023-03-15T06:37:50;96609.59;;;-1.68;100.00
64610;BME280;51019;46.090;6.350;2023-03-15T06:40:18;96724.19;;;-0.85;100.00
64610;BME280;51019;46.090;6.350;2023-03-15T06:42:45;96752.91;;;-0.56;100.00
64610;BME280;51019;46.090;6.350;2023-03-15T06:45:15;96675.41;;;-0.88;100.00
64610;BME280;51019;46.090;6.350;2023-03-15T06:47:43;96733.72;;;-0.49;100.00
64610;BME280;51019;46.090;6.350;2023-03-15T06:50:11;96784.13;;;0.11;100.00
64610;BME280;51019;46.090;6.350;2023-03-15T06:52:39;96761.66;;;-0.04;100.00
64610;BME280;51019;46.090;6.350;2023-03-15T06:55:06;96717.56;;;-0.34;100.00
64610;BME280;51019;46.090;6.350;2023-03-15T06:57:34;96747.56;;;0.03;100.00
64610;BME280;51019;46.090;6.350;2023-03-15T07:00:02;96701.38;;;-0.19;100.00
64610;BME280;51019;46.090;6.350;2023-03-15T07:02:37;96786.41;;;0.34;100.00
64610;BME280;51019;46.090;6.350;2023-03-15T07:05:06;96801.38;;;0.80;100.00
64610;BME280;51019;46.090;6.350;2023-03-15T07:07:33;96744.66;;;0.45;100.00
64610;BME280;51019;46.090;6.350;2023-03-15T07:10:01;96805.78;;;0.95;100.00
64610;BME280;51019;46.090;6.350;2023-03-15T07:12:28;96694.56;;;0.49;100.00
64610;BME280;51019;46.090;6.350;2023-03-15T07:14:55;96808.78;;;1.53;100.00
64610;BME280;51019;46.090;6.350;2023-03-15T07:17:23;96807.50;;;1.44;100.00
64610;BME280;51019;46.090;6.350;2023-03-15T07:19:51;96809.41;;;1.41;100.00
64610;BME280;51019;46.090;6.350;2023-03-15T07:22:19;96762.94;;;1.08;100.00
64610;BME280;51019;46.090;6.350;2023-03-15T07:24:47;96778.44;;;1.72;100.00
64610;BME280;51019;46.090;6.350;2023-03-15T07:27:14;96709.09;;;1.49;100.00
64610;BME280;51019;46.090;6.350;2023-03-15T07:29:42;96812.09;;;2.49;100.00
64610;BME280;51019;46.090;6.350;2023-03-15T07:32:09;96756.91;;;2.19;100.00
64610;BME280;51019;46.090;6.350;2023-03-15T07:34:37;96784.06;;;2.42;100.00
64610;BME280;51019;46.090;6.350;2023-03-15T07:37:06;96741.91;;;2.26;100.00
64610;BME280;51019;46.090;6.350;2023-03-15T07:39:33;96774.91;;;2.36;100.00
64610;BME280;51019;46.090;6.350;2023-03-15T07:42:01;96813.72;;;2.36;100.00
64610;BME280;51019;46.090;6.350;2023-03-15T07:44:31;96820.28;;;2.42;100.00
64610;BME280;51019;46.090;6.350;2023-03-15T07:46:59;96760.88;;;2.40;100.00
64610;BME280;51019;46.090;6.350;2023-03-15T07:49:26;96783.44;;;2.82;100.00
64610;BME280;51019;46.090;6.350;2023-03-15T07:51:55;96817.22;;;3.25;100.00
64610;BME280;51019;46.090;6.350;2023-03-15T07:54:24;96830.72;;;3.58;100.00
64610;BME280;51019;46.090;6.350;2023-03-15T07:56:53;96788.19;;;3.89;100.00
64610;BME280;51019;46.090;6.350;2023-03-15T07:59:21;96764.75;;;3.50;100.00
64610;BME280;51019;46.090;6.350;2023-03-15T08:01:48;96824.13;;;4.36;100.00
64610;BME280;51019;46.090;6.350;2023-03-15T08:04:16;96768.72;;;4.37;100.00
64610;BME280;51019;46.090;6.350;2023-03-15T08:06:43;96825.63;;;4.53;100.00
64610;BME280;51019;46.090;6.350;2023-03-15T08:09:11;96821.22;;;5.07;100.00
64610;BME280;51019;46.090;6.350;2023-03-15T08:11:40;96818.50;;;4.57;100.00
64610;BME280;51019;46.090;6.350;2023-03-15T08:14:07;96811.47;;;5.24;100.00
64610;BME280;51019;46.090;6.350;2023-03-15T08:16:34;96807.38;;;5.20;100.00
64610;BME280;51019;46.090;6.350;2023-03-15T08:19:02;96768.94;;;5.12;100.00
64610;BME280;51019;46.090;6.350;2023-03-15T08:21:29;96754.91;;;5.15;100.00
64610;BME280;51019;46.090;6.350;2023-03-15T08:23:58;96800.03;;;5.39;100.00
64610;BME280;51019;46.090;6.350;2023-03-15T08:26:26;96798.78;;;5.44;100.00
64610;BME280;51019;46.090;6.350;2023-03-15T08:28:56;96807.50;;;5.94;100.00
64610;BME280;51019;46.090;6.350;2023-03-15T08:31:23;96754.06;;;5.52;100.00
64610;BME280;51019;46.090;6.350;2023-03-15T08:33:50;96809.31;;;6.17;100.00
64610;BME280;51019;46.090;6.350;2023-03-15T08:36:18;96799.81;;;6.53;100.00
64610;BME280;51019;46.090;6.350;2023-03-15T08:38:45;96727.81;;;6.17;100.00
64610;BME280;51019;46.090;6.350;2023-03-15T08:41:13;96801.69;;;6.51;100.00
64610;BME280;51019;46.090;6.350;2023-03-15T08:43:40;96795.53;;;6.52;100.00
64610;BME280;51019;46.090;6.350;2023-03-15T08:46:10;96782.41;;;6.53;100.00
64610;BME280;51019;46.090;6.350;2023-03-15T08:48:37;96814.28;;;6.92;100.00
64610;BME280;51019;46.090;6.350;2023-03-15T08:51:06;96816.28;;;7.35;100.00
64610;BME280;51019;46.090;6.350;2023-03-15T08:53:34;96821.44;;;7.92;100.00
64610;BME280;51019;46.090;6.350;2023-03-15T08:56:02;96752.72;;;7.02;100.00
64610;BME280;51019;46.090;6.350;2023-03-15T08:58:29;96779.22;;;6.85;100.00
64610;BME280;51019;46.090;6.350;2023-03-15T09:00:57;96807.78;;;6.63;100.00
64610;BME280;51019;46.090;6.350;2023-03-15T09:03:26;96812.06;;;7.56;100.00
64610;BME280;51019;46.090;6.350;2023-03-15T09:05:55;96746.44;;;6.93;100.00
64610;BME280;51019;46.090;6.350;2023-03-15T09:08:22;96814.16;;;8.29;100.00
64610;BME280;51019;46.090;6.350;2023-03-15T09:10:53;96801.25;;;8.16;100.00
64610;BME280;51019;46.090;6.350;2023-03-15T09:13:20;96716.06;;;8.47;100.00
64610;BME280;51019;46.090;6.350;2023-03-15T09:15:48;96800.09;;;9.16;95.32
64610;BME280;51019;46.090;6.350;2023-03-15T09:18:16;96804.41;;;8.85;98.36
64610;BME280;51019;46.090;6.350;2023-03-15T09:20:47;96819.81;;;8.67;100.00
64610;BME280;51019;46.090;6.350;2023-03-15T09:23:15;96771.84;;;8.89;93.32
64610;BME280;51019;46.090;6.350;2023-03-15T09:25:42;96805.25;;;9.69;90.83
64610;BME280;51019;46.090;6.350;2023-03-15T09:28:10;96810.00;;;9.84;89.24
64610;BME280;51019;46.090;6.350;2023-03-15T09:30:39;96813.69;;;9.82;90.88
64610;BME280;51019;46.090;6.350;2023-03-15T09:33:09;96818.94;;;10.12;87.42
64610;BME280;51019;46.090;6.350;2023-03-15T09:35:39;96817.00;;;9.84;93.03
64610;BME280;51019;46.090;6.350;2023-03-15T09:38:08;96810.97;;;9.32;84.28
64610;BME280;51019;46.090;6.350;2023-03-15T09:40:38;96792.34;;;9.77;84.23
64610;BME280;51019;46.090;6.350;2023-03-15T09:43:37;96795.44;;;8.99;82.06
64610;BME280;51019;46.090;6.350;2023-03-15T09:46:22;96788.56;;;8.34;78.22
64610;BME280;51019;46.090;6.350;2023-03-15T09:48:53;96811.44;;;8.42;76.53
64610;BME280;51019;46.090;6.350;2023-03-15T09:51:29;96801.97;;;7.96;76.58
64610;BME280;51019;46.090;6.350;2023-03-15T09:54:03;96787.06;;;9.67;71.68
64610;BME280;51019;46.090;6.350;2023-03-15T09:56:36;96810.72;;;9.66;67.26
64610;BME280;51019;46.090;6.350;2023-03-15T09:59:08;96805.50;;;9.66;67.05
64610;BME280;51019;46.090;6.350;2023-03-15T10:01:37;96794.75;;;9.59;66.38
64610;BME280;51019;46.090;6.350;2023-03-15T10:04:11;96791.56;;;9.14;69.41
64610;BME280;51019;46.090;6.350;2023-03-15T10:06:44;96799.38;;;9.86;64.29
64610;BME280;51019;46.090;6.350;2023-03-15T10:09:19;96744.81;;;10.22;64.15
64610;BME280;51019;46.090;6.350;2023-03-15T10:11:58;96797.81;;;10.64;60.27
64610;BME280;51019;46.090;6.350;2023-03-15T10:14:43;96732.25;;;10.15;62.80
64610;BME280;51019;46.090;6.350;2023-03-15T10:17:20;96786.13;;;10.77;63.45
64610;BME280;51019;46.090;6.350;2023-03-15T10:19:52;96794.25;;;9.75;61.55
64610;BME280;51019;46.090;6.350;2023-03-15T10:22:26;96743.91;;;10.90;58.72
64610;BME280;51019;46.090;6.350;2023-03-15T10:25:00;96794.16;;;11.80;60.81
64610;BME280;51019;46.090;6.350;2023-03-15T10:27:33;96773.31;;;11.59;56.20
64610;BME280;51019;46.090;6.350;2023-03-15T10:30:14;96749.28;;;10.88;61.44
64610;BME280;51019;46.090;6.350;2023-03-15T10:32:43;96764.97;;;11.27;61.36
64610;BME280;51019;46.090;6.350;2023-03-15T10:35:14;96794.84;;;11.63;54.01
64610;BME280;51019;46.090;6.350;2023-03-15T10:37:42;96716.28;;;10.86;56.84
64610;BME280;51019;46.090;6.350;2023-03-15T10:40:13;96785.00;;;10.01;58.20
64610;BME280;51019;46.090;6.350;2023-03-15T10:42:42;96787.47;;;11.20;56.76
64610;BME280;51019;46.090;6.350;2023-03-15T10:45:17;96725.69;;;10.88;56.60
64610;BME280;51019;46.090;6.350;2023-03-15T10:47:46;96784.97;;;12.21;54.19
64610;BME280;51019;46.090;6.350;2023-03-15T10:50:25;96779.44;;;12.42;53.27
64610;BME280;51019;46.090;6.350;2023-03-15T10:52:54;96729.91;;;12.02;54.88
64610;BME280;51019;46.090;6.350;2023-03-15T10:55:29;96777.81;;;12.41;53.86
64610;BME280;51019;46.090;6.350;2023-03-15T10:58:12;96718.34;;;11.95;54.20
64610;BME280;51019;46.090;6.350;2023-03-15T11:00:47;96756.94;;;12.12;54.15
64610;BME280;51019;46.090;6.350;2023-03-15T11:03:17;96778.16;;;12.28;55.33
64610;BME280;51019;46.090;6.350;2023-03-15T11:05:46;96775.09;;;12.06;57.60
64610;BME280;51019;46.090;6.350;2023-03-15T11:08:16;96771.34;;;11.81;52.32
64610;BME280;51019;46.090;6.350;2023-03-15T11:10:47;96769.34;;;12.65;52.38
64610;BME280;51019;46.090;6.350;2023-03-15T11:13:23;96762.28;;;13.44;50.30
64610;BME280;51019;46.090;6.350;2023-03-15T11:15:59;96762.69;;;13.32;49.52
64610;BME280;51019;46.090;6.350;2023-03-15T11:18:32;96766.84;;;13.34;50.15
64610;BME280;51019;46.090;6.350;2023-03-15T11:21:02;96764.25;;;13.94;48.48
64610;BME280;51019;46.090;6.350;2023-03-15T11:23:35;96755.69;;;13.66;47.82
64610;BME280;51019;46.090;6.350;2023-03-15T11:26:05;96755.59;;;13.76;50.47
64610;BME280;51019;46.090;6.350;2023-03-15T11:28:36;96738.16;;;13.83;47.63
64610;BME280;51019;46.090;6.350;2023-03-15T11:31:08;96728.22;;;14.61;44.61
64610;BME280;51019;46.090;6.350;2023-03-15T11:33:43;96727.88;;;14.06;46.62
64610;BME280;51019;46.090;6.350;2023-03-15T11:36:15;96743.56;;;14.90;44.66
64610;BME280;51019;46.090;6.350;2023-03-15T11:38:44;96676.41;;;15.41;40.87
64610;BME280;51019;46.090;6.350;2023-03-15T11:41:26;96739.78;;;16.13;40.49
64610;BME280;51019;46.090;6.350;2023-03-15T11:44:04;96733.69;;;15.33;41.62
64610;BME280;51019;46.090;6.350;2023-03-15T11:46:40;96734.50;;;15.25;42.87
64610;BME280;51019;46.090;6.350;2023-03-15T11:49:11;96724.78;;;14.93;42.79
64610;BME280;51019;46.090;6.350;2023-03-15T11:51:41;96715.19;;;14.51;41.09
64610;BME280;51019;46.090;6.350;2023-03-15T11:54:12;96726.56;;;14.52;41.97
64610;BME280;51019;46.090;6.350;2023-03-15T11:56:51;96708.91;;;16.05;39.61
64610;BME280;51019;46.090;6.350;2023-03-15T11:59:23;96715.63;;;16.16;39.36
64610;BME280;51019;46.090;6.350;2023-03-15T12:01:54;96719.47;;;15.58;37.65
64610;BME280;51019;46.090;6.350;2023-03-15T12:04:36;96690.16;;;14.96;39.20
64610;BME280;51019;46.090;6.350;2023-03-15T12:07:04;96691.28;;;15.02;38.86
64610;BME280;51019;46.090;6.350;2023-03-15T12:09:54;96696.63;;;16.43;38.00
64610;BME280;51019;46.090;6.350;2023-03-15T12:12:36;96679.06;;;16.50;34.21
64610;BME280;51019;46.090;6.350;2023-03-15T12:15:40;96682.91;;;16.17;38.08
64610;BME280;51019;46.090;6.350;2023-03-15T12:18:03;96680.81;;;15.65;39.33
64610;BME280;51019;46.090;6.350;2023-03-15T12:20:34;96680.56;;;16.22;38.17
64610;BME280;51019;46.090;6.350;2023-03-15T12:23:20;96692.13;;;15.82;36.78
64610;BME280;51019;46.090;6.350;2023-03-15T12:25:52;96649.63;;;16.00;36.39
64610;BME280;51019;46.090;6.350;2023-03-15T12:28:22;96689.78;;;15.95;33.66
64610;BME280;51019;46.090;6.350;2023-03-15T12:30:55;96676.25;;;15.35;35.71
64610;BME280;51019;46.090;6.350;2023-03-15T12:33:24;96634.28;;;14.44;36.85
64610;BME280;51019;46.090;6.350;2023-03-15T12:35:58;96670.00;;;15.83;39.17
64610;BME280;51019;46.090;6.350;2023-03-15T12:38:34;96600.00;;;15.32;35.50
64610;BME280;51019;46.090;6.350;2023-03-15T12:41:06;96682.00;;;15.93;39.13
64610;BME280;51019;46.090;6.350;2023-03-15T12:43:38;96662.41;;;15.33;36.24
64610;BME280;51019;46.090;6.350;2023-03-15T12:46:06;96593.13;;;15.22;37.09
64610;BME280;51019;46.090;6.350;2023-03-15T12:48:34;96623.59;;;15.80;33.73
64610;BME280;51019;46.090;6.350;2023-03-15T12:51:04;96651.09;;;16.33;37.26
64610;BME280;51019;46.090;6.350;2023-03-15T12:53:45;96657.84;;;16.36;36.55
64610;BME280;51019;46.090;6.350;2023-03-15T12:56:41;96664.22;;;15.87;37.39
64610;BME280;51019;46.090;6.350;2023-03-15T12:59:16;96650.50;;;15.29;35.43
64610;BME280;51019;46.090;6.350;2023-03-15T13:01:45;96651.75;;;15.65;33.07
64610;BME280;51019;46.090;6.350;2023-03-15T13:04:13;96649.88;;;16.66;34.77
64610;BME280;51019;46.090;6.350;2023-03-15T13:07:06;96630.78;;;16.48;36.19
64610;BME280;51019;46.090;6.350;2023-03-15T13:09:55;96630.13;;;15.61;36.58
64610;BME280;51019;46.090;6.350;2023-03-15T13:12:30;96641.44;;;15.86;35.41